createdAt,value
2018-05-11T00:02:08.545Z,12.50
2018-05-11T00:04:34.629Z,12.50
2018-05-11T00:07:07.740Z,12.50
2018-05-11T00:09:33.796Z,12.50
2018-05-11T00:12:00.612Z,12.50
2018-05-11T00:14:28.762Z,12.50
2018-05-11T00:16:54.810Z,12.50
2018-05-11T00:19:20.860Z,12.40
2018-05-11T00:21:46.946Z,12.50
2018-05-11T00:24:13.745Z,12.40
2018-05-11T00:26:39.792Z,12.40
2018-05-11T00:29:05.897Z,12.50
2018-05-11T00:31:31.937Z,12.50
2018-05-11T00:33:57.989Z,12.40
2018-05-11T00:36:24.110Z,12.40
2018-05-11T00:38:50.151Z,12.40
2018-05-11T00:41:16.195Z,12.40
2018-05-11T00:43:42.219Z,12.30
2018-05-11T00:46:08.279Z,12.40
2018-05-11T00:48:34.356Z,12.40
2018-05-11T00:51:00.393Z,12.40
2018-05-11T00:53:27.183Z,12.30
2018-05-11T00:55:53.263Z,12.30
2018-05-11T00:58:19.312Z,12.40
2018-05-11T01:00:45.341Z,12.30
2018-05-11T01:03:11.698Z,12.20
2018-05-11T01:05:37.805Z,12.20
2018-05-11T01:08:03.841Z,12.20
2018-05-11T01:10:29.948Z,12.20
2018-05-11T01:12:56.022Z,12.20
2018-05-11T01:15:22.090Z,12.20
2018-05-11T01:17:48.167Z,12.20
2018-05-11T01:20:14.255Z,12.20
2018-05-11T01:22:40.294Z,12.20
2018-05-11T01:25:06.375Z,12.20
2018-05-11T01:27:33.189Z,12.20
2018-05-11T01:29:59.230Z,12.20
2018-05-11T01:32:25.313Z,12.20
2018-05-11T01:34:51.358Z,12.20
2018-05-11T01:37:17.406Z,12.20
2018-05-11T01:39:43.524Z,12.30
2018-05-11T01:42:09.569Z,12.20
2018-05-11T01:44:35.656Z,12.20
2018-05-11T01:47:01.729Z,12.20
2018-05-11T01:49:28.547Z,12.20
2018-05-11T01:51:54.694Z,12.20
2018-05-11T01:54:20.742Z,12.20
2018-05-11T01:56:46.813Z,12.20
2018-05-11T01:59:13.064Z,12.20
2018-05-11T02:01:39.203Z,12.20
2018-05-11T02:04:05.241Z,12.10
2018-05-11T02:06:31.408Z,12.10
2018-05-11T02:08:57.425Z,12.10
2018-05-11T02:11:23.464Z,12.20
2018-05-11T02:13:49.514Z,12.10
2018-05-11T02:16:15.535Z,12.20
2018-05-11T02:18:41.644Z,12.10
2018-05-11T02:21:07.693Z,12.10
2018-05-11T02:23:33.767Z,12.10
2018-05-11T02:25:59.935Z,12.00
2018-05-11T02:28:25.910Z,12.10
2018-05-11T02:30:51.961Z,12.00
2018-05-11T02:33:17.985Z,12.00
2018-05-11T02:35:44.049Z,12.00
2018-05-11T02:38:10.101Z,12.00
2018-05-11T02:40:36.275Z,11.90
2018-05-11T02:43:03.061Z,11.90
2018-05-11T02:45:29.145Z,11.90
2018-05-11T02:47:55.221Z,11.90
2018-05-11T02:50:21.261Z,11.90
2018-05-11T02:52:47.309Z,11.80
2018-05-11T02:55:13.343Z,11.80
2018-05-11T02:57:39.480Z,11.80
2018-05-11T03:00:06.406Z,11.80
2018-05-11T03:02:32.497Z,11.90
2018-05-11T03:04:58.525Z,11.80
2018-05-11T03:07:24.576Z,11.90
2018-05-11T03:09:50.672Z,11.90
2018-05-11T03:12:16.730Z,11.90
2018-05-11T03:14:42.817Z,11.90
2018-05-11T03:17:08.975Z,11.80
2018-05-11T03:19:34.958Z,11.80
2018-05-11T03:22:01.038Z,11.80
2018-05-11T03:24:27.066Z,11.90
2018-05-11T03:26:53.111Z,11.80
2018-05-11T03:29:19.188Z,11.80
2018-05-11T03:31:45.225Z,11.80
2018-05-11T03:34:11.257Z,11.90
2018-05-11T03:36:37.327Z,11.90
2018-05-11T03:39:03.728Z,11.90
2018-05-11T03:41:29.770Z,11.90
2018-05-11T03:43:55.834Z,11.80
2018-05-11T03:46:21.879Z,11.90
2018-05-11T03:48:47.905Z,11.90
2018-05-11T03:51:14.045Z,11.90
2018-05-11T03:53:40.109Z,11.90
2018-05-11T03:56:06.150Z,11.90
2018-05-11T03:58:32.226Z,11.90
2018-05-11T04:00:58.264Z,11.90
2018-05-11T04:03:37.491Z,11.90
2018-05-11T04:09:09.117Z,11.70
2018-05-11T04:11:35.926Z,11.60
2018-05-11T04:14:02.337Z,11.60
2018-05-11T04:16:28.380Z,11.60
2018-05-11T04:18:54.463Z,11.60
2018-05-11T04:21:20.512Z,11.60
2018-05-11T04:23:54.379Z,11.50
2018-05-11T04:26:20.444Z,11.50
2018-05-11T04:28:46.495Z,11.60
2018-05-11T04:31:12.540Z,11.50
2018-05-11T04:33:38.833Z,11.50
2018-05-11T04:36:04.916Z,11.50
2018-05-11T04:38:30.975Z,11.50
2018-05-11T04:40:57.144Z,11.50
2018-05-11T04:43:23.189Z,11.60
2018-05-11T04:45:49.276Z,11.60
2018-05-11T04:48:15.422Z,11.60
2018-05-11T04:50:42.235Z,11.70
2018-05-11T04:53:08.377Z,11.70
2018-05-11T04:55:34.485Z,11.90
2018-05-11T04:58:00.522Z,12.00
2018-05-11T05:00:26.543Z,12.10
2018-05-11T05:02:52.593Z,12.20
2018-05-11T05:05:18.657Z,12.30
2018-05-11T05:07:44.690Z,12.40
2018-05-11T05:10:11.143Z,12.40
2018-05-11T05:12:37.177Z,12.60
2018-05-11T05:15:03.221Z,12.70
2018-05-11T05:17:29.349Z,12.80
2018-05-11T05:19:55.437Z,12.70
2018-05-11T05:22:22.470Z,12.70
2018-05-11T05:24:48.534Z,12.70
2018-05-11T05:27:15.325Z,12.70
2018-05-11T05:29:41.429Z,12.70
2018-05-11T05:32:07.503Z,12.80
2018-05-11T05:34:33.586Z,12.80
2018-05-11T05:36:59.677Z,12.90
2018-05-11T05:39:25.714Z,12.90
2018-05-11T05:41:52.065Z,12.90
2018-05-11T05:44:18.112Z,13.00
2018-05-11T05:46:44.149Z,13.10
2018-05-11T05:49:10.234Z,13.10
2018-05-11T05:51:36.364Z,13.10
2018-05-11T05:54:02.457Z,13.10
2018-05-11T05:56:28.551Z,13.20
2018-05-11T05:58:54.694Z,13.20
2018-05-11T06:01:21.525Z,13.30
2018-05-11T06:03:47.568Z,13.20
2018-05-11T06:06:13.627Z,13.30
2018-05-11T06:08:40.432Z,13.20
2018-05-11T06:11:06.518Z,13.20
2018-05-11T06:13:33.362Z,13.20
2018-05-11T06:15:59.412Z,13.20
2018-05-11T06:18:26.207Z,13.10
2018-05-11T06:20:52.277Z,13.10
2018-05-11T06:23:18.347Z,13.10
2018-05-11T06:25:44.411Z,13.10
2018-05-11T06:28:10.604Z,13.20
2018-05-11T06:30:36.736Z,13.20
2018-05-11T06:33:02.815Z,13.20
2018-05-11T06:35:28.855Z,13.20
2018-05-11T06:37:54.964Z,13.20
2018-05-11T06:40:22.144Z,13.20
2018-05-11T06:42:48.195Z,13.20
2018-05-11T06:45:14.226Z,13.20
2018-05-11T06:47:42.712Z,13.20
2018-05-11T06:50:09.502Z,13.40
2018-05-11T06:52:35.579Z,13.40
2018-05-11T06:55:01.714Z,13.50
2018-05-11T06:57:27.732Z,13.60
2018-05-11T06:59:53.748Z,13.60
2018-05-11T07:02:19.832Z,13.60
2018-05-11T07:04:45.867Z,13.70
2018-05-11T07:07:11.955Z,13.60
2018-05-11T07:09:38.001Z,13.90
2018-05-11T07:12:04.066Z,14.10
2018-05-11T07:14:30.041Z,14.30
2018-05-11T07:16:56.089Z,14.50
2018-05-11T07:19:22.101Z,14.70
2018-05-11T07:21:47.972Z,14.80
2018-05-11T07:24:13.914Z,14.60
2018-05-11T07:26:39.899Z,14.40
2018-05-11T07:29:05.849Z,14.30
2018-05-11T07:31:32.656Z,14.10
2018-05-11T07:33:59.035Z,14.10
2018-05-11T07:36:25.846Z,14.10
2018-05-11T07:38:51.875Z,14.10
2018-05-11T07:41:17.928Z,14.20
2018-05-11T07:43:44.313Z,14.20
2018-05-11T07:46:11.154Z,14.30
2018-05-11T07:48:37.205Z,14.30
2018-05-11T07:51:04.031Z,14.40
2018-05-11T07:53:30.812Z,14.60
2018-05-11T07:55:57.602Z,14.60
2018-05-11T07:58:23.653Z,14.60
2018-05-11T08:00:49.712Z,14.40
2018-05-11T08:03:15.806Z,14.30
2018-05-11T08:05:42.105Z,14.30
2018-05-11T08:08:08.188Z,14.30
2018-05-11T08:10:34.254Z,14.30
2018-05-11T08:13:00.350Z,14.30
2018-05-11T08:15:26.403Z,14.50
2018-05-11T08:17:52.489Z,14.50
2018-05-11T08:20:18.572Z,14.60
2018-05-11T08:22:44.641Z,14.60
2018-05-11T08:25:10.957Z,14.70
2018-05-11T08:27:36.994Z,14.90
2018-05-11T08:30:03.065Z,15.00
2018-05-11T08:32:29.154Z,15.00
2018-05-11T08:34:55.451Z,15.20
2018-05-11T09:59:17.901Z,15.50
2018-05-11T10:01:43.985Z,17.00
2018-05-11T10:04:10.021Z,17.20
2018-05-11T10:06:36.078Z,17.40
2018-05-11T10:09:02.146Z,17.60
2018-05-11T10:11:28.261Z,17.40
2018-05-11T10:13:54.372Z,17.30
2018-05-11T10:16:21.137Z,17.40
2018-05-11T10:18:47.151Z,17.40
2018-05-11T10:21:13.969Z,17.70
2018-05-11T10:23:40.105Z,17.70
2018-05-11T10:26:06.176Z,17.80
2018-05-11T10:28:33.141Z,17.60
2018-05-11T10:30:59.965Z,17.70
2018-05-11T10:33:26.010Z,17.70
2018-05-11T10:35:52.074Z,17.70
2018-05-11T10:38:18.875Z,17.70
2018-05-11T10:40:44.947Z,17.70
2018-05-11T10:43:11.042Z,17.70
2018-05-11T10:45:37.632Z,17.80
2018-05-11T10:48:03.705Z,18.10
2018-05-11T10:50:36.857Z,18.20
2018-05-11T10:53:03.455Z,18.40
2018-05-11T10:55:29.913Z,18.20
2018-05-11T10:57:56.016Z,18.10
2018-05-11T11:00:22.168Z,18.60
2018-05-11T11:02:49.125Z,18.70
2018-05-11T11:05:15.191Z,18.70
2018-05-11T11:07:41.232Z,18.70
2018-05-11T11:10:07.363Z,18.80
2018-05-11T11:12:33.499Z,18.90
2018-05-11T11:14:59.757Z,20.10
2018-05-11T11:17:25.860Z,20.50
2018-05-11T11:19:52.671Z,21.10
2018-05-11T11:22:18.690Z,21.10
2018-05-11T11:24:44.760Z,21.50
2018-05-11T11:27:10.789Z,22.30
2018-05-11T11:29:36.912Z,22.50
2018-05-11T11:32:02.977Z,23.00
2018-05-11T11:34:29.126Z,22.90
2018-05-11T11:36:55.809Z,23.90
2018-05-11T11:39:22.012Z,23.90
2018-05-11T11:41:49.136Z,23.80
2018-05-11T11:44:15.184Z,24.20
2018-05-11T11:46:41.589Z,25.10
2018-05-11T11:49:07.637Z,25.00
2018-05-11T11:51:33.736Z,24.90
2018-05-11T11:53:59.801Z,25.80
2018-05-11T11:56:26.594Z,26.10
2018-05-11T11:58:52.652Z,26.10
2018-05-11T12:01:18.826Z,25.90
2018-05-11T12:03:45.596Z,26.10
2018-05-11T12:06:11.614Z,26.10
2018-05-11T12:08:38.082Z,25.80
2018-05-11T12:11:04.161Z,26.00
2018-05-11T12:13:31.140Z,26.60
2018-05-11T12:15:57.169Z,26.30
2018-05-11T12:18:23.215Z,26.90
2018-05-11T12:20:49.273Z,26.90
2018-05-11T12:23:16.058Z,27.60
2018-05-11T12:25:42.254Z,27.60
2018-05-11T12:28:09.399Z,28.80
2018-05-11T12:30:35.563Z,28.70
2018-05-11T12:33:02.397Z,29.40
2018-05-11T12:35:28.446Z,29.30
2018-05-11T12:37:54.509Z,28.30
2018-05-11T12:40:20.568Z,27.00
2018-05-11T12:42:46.738Z,28.30
2018-05-11T12:45:12.794Z,28.20
2018-05-11T12:47:38.858Z,26.90
2018-05-11T12:50:04.897Z,25.90
2018-05-11T12:52:31.676Z,26.70
2018-05-11T12:54:57.748Z,26.70
2018-05-11T12:57:24.763Z,28.00
2018-05-11T12:59:50.831Z,28.00
2018-05-11T13:02:16.870Z,27.60
2018-05-11T13:04:42.955Z,27.10
2018-05-11T13:07:09.974Z,25.90
2018-05-11T13:09:35.996Z,25.80
2018-05-11T13:12:02.054Z,26.00
2018-05-11T13:14:28.126Z,26.30
2018-05-11T13:16:54.885Z,25.90
2018-05-11T13:19:21.680Z,25.70
2018-05-11T13:21:47.747Z,25.70
2018-05-11T13:24:13.768Z,25.20
2018-05-11T13:26:39.831Z,25.40
2018-05-11T13:29:10.361Z,25.90
2018-05-11T13:31:36.395Z,26.10
2018-05-11T13:34:06.339Z,26.30
2018-05-11T13:36:32.545Z,26.90
2018-05-11T13:38:58.541Z,27.90
2018-05-11T13:41:24.684Z,29.20
2018-05-11T13:43:50.746Z,29.80
2018-05-11T13:46:16.816Z,28.70
2018-05-11T13:48:42.954Z,27.80
2018-05-11T13:51:09.020Z,27.10
2018-05-11T13:53:35.077Z,26.30
2018-05-11T13:56:01.321Z,25.80
2018-05-11T13:58:27.405Z,25.10
2018-05-11T14:00:53.470Z,24.70
2018-05-11T14:03:20.292Z,23.90
2018-05-11T14:05:46.325Z,23.90
2018-05-11T14:08:12.369Z,23.70
2018-05-11T14:10:38.436Z,23.60
2018-05-11T14:13:05.262Z,22.60
2018-05-11T14:15:31.348Z,22.60
2018-05-11T14:17:57.413Z,22.20
2018-05-11T14:20:23.448Z,22.00
2018-05-11T14:22:49.522Z,22.50
2018-05-11T14:25:15.651Z,22.90
2018-05-11T14:27:42.453Z,23.00
2018-05-11T14:30:09.277Z,23.00
2018-05-11T14:32:35.336Z,23.00
2018-05-11T14:35:02.094Z,23.20
2018-05-11T14:37:28.150Z,23.20
2018-05-11T14:39:54.189Z,23.50
2018-05-11T14:42:20.242Z,24.00
2018-05-11T14:44:46.325Z,24.00
2018-05-11T14:47:12.374Z,23.60
2018-05-11T14:49:39.189Z,23.50
2018-05-11T14:52:05.263Z,23.50
2018-05-11T14:54:32.059Z,22.90
2018-05-11T14:56:58.121Z,22.90
2018-05-11T14:59:24.209Z,22.60
2018-05-11T15:01:50.252Z,22.10
2018-05-11T15:04:16.457Z,21.70
2018-05-11T15:06:42.360Z,21.30
2018-05-11T15:09:09.287Z,20.90
2018-05-11T15:11:35.315Z,20.90
2018-05-11T15:14:01.752Z,21.00
2018-05-11T15:16:35.376Z,21.20
2018-05-11T15:19:02.179Z,21.10
2018-05-11T15:21:28.242Z,21.10
2018-05-11T15:23:55.165Z,20.70
2018-05-11T15:26:21.238Z,20.70
2018-05-11T15:28:47.585Z,20.80
2018-05-11T15:31:13.669Z,20.70
2018-05-11T15:33:39.687Z,20.80
2018-05-11T15:36:06.074Z,20.90
2018-05-11T15:38:32.157Z,21.00
2018-05-11T15:40:58.934Z,21.20
2018-05-11T15:43:25.141Z,21.20
2018-05-11T15:45:51.913Z,21.60
2018-05-11T15:48:18.736Z,21.60
2018-05-11T15:50:44.791Z,21.60
2018-05-11T15:53:11.611Z,21.50
2018-05-11T15:55:37.670Z,21.50
2018-05-11T15:58:03.761Z,21.70
2018-05-11T16:00:29.795Z,22.30
2018-05-11T16:02:55.895Z,22.60
2018-05-11T16:05:22.740Z,22.40
2018-05-11T16:07:48.846Z,22.40
2018-05-11T16:10:14.931Z,22.30
2018-05-11T16:12:42.107Z,21.70
2018-05-11T16:15:08.033Z,21.70
2018-05-11T16:17:34.842Z,21.70
2018-05-11T16:20:00.905Z,21.60
2018-05-11T16:22:26.957Z,21.70
2018-05-11T16:24:53.739Z,21.80
2018-05-11T16:27:19.791Z,21.80
2018-05-11T16:29:45.827Z,21.80
2018-05-11T16:32:11.884Z,21.60
2018-05-11T16:34:37.953Z,21.40
2018-05-11T16:37:04.749Z,21.20
2018-05-11T16:39:30.979Z,21.20
2018-05-11T16:41:57.047Z,21.10
2018-05-11T16:44:23.108Z,21.00
2018-05-11T16:46:49.186Z,21.10
2018-05-11T16:49:15.586Z,21.10
2018-05-11T16:51:41.629Z,21.20
2018-05-11T16:54:07.706Z,21.30
2018-05-11T16:56:33.781Z,21.30
2018-05-11T16:58:59.854Z,21.20
2018-05-11T17:01:25.922Z,21.00
2018-05-11T17:03:52.082Z,20.90
2018-05-11T17:06:18.024Z,20.70
2018-05-11T17:08:43.967Z,20.80
2018-05-11T17:11:10.394Z,20.80
2018-05-11T17:13:36.436Z,20.80
2018-05-11T17:16:02.482Z,20.70
2018-05-11T17:18:28.629Z,20.60
2018-05-11T17:20:54.710Z,20.50
2018-05-11T17:23:20.802Z,20.40
2018-05-11T17:25:46.886Z,20.20
2018-05-11T17:28:13.702Z,20.00
2018-05-11T17:30:39.784Z,20.00
2018-05-11T17:33:06.612Z,19.70
2018-05-11T17:35:32.695Z,19.70
2018-05-11T17:37:58.735Z,19.70
2018-05-11T17:40:24.822Z,19.60
2018-05-11T17:42:50.907Z,19.50
2018-05-11T17:45:16.948Z,19.40
2018-05-11T17:47:43.041Z,19.40
2018-05-11T17:50:09.111Z,19.30
2018-05-11T17:52:35.389Z,19.10
2018-05-11T17:55:01.452Z,19.10
2018-05-11T17:57:27.542Z,19.00
2018-05-11T17:59:53.598Z,18.90
2018-05-11T18:02:20.501Z,18.90
2018-05-11T18:04:46.562Z,18.90
2018-05-11T18:07:13.309Z,18.80
2018-05-11T18:09:40.228Z,18.80
2018-05-11T18:12:06.347Z,18.70
2018-05-11T18:14:32.313Z,18.70
2018-05-11T18:16:58.376Z,18.70
2018-05-11T18:19:25.166Z,18.60
2018-05-11T18:21:51.204Z,18.60
2018-05-11T18:24:17.239Z,18.50
2018-05-11T18:26:43.309Z,18.50
2018-05-11T18:29:09.544Z,18.40
2018-05-11T18:31:35.577Z,18.40
2018-05-11T18:34:01.607Z,18.30
2018-05-11T18:36:27.686Z,18.30
2018-05-11T18:38:54.470Z,18.10
2018-05-11T18:41:20.596Z,18.10
2018-05-11T18:43:47.534Z,18.00
2018-05-11T18:46:13.566Z,18.00
2018-05-11T18:48:39.619Z,18.00
2018-05-11T18:51:05.713Z,17.90
2018-05-11T18:53:31.999Z,17.80
2018-05-11T18:55:57.854Z,17.80
2018-05-11T18:58:23.886Z,17.70
2018-05-11T19:00:49.971Z,17.70
2018-05-11T19:03:16.574Z,17.70
2018-05-11T19:05:42.614Z,17.70
2018-05-11T19:08:08.684Z,17.70
2018-05-11T19:10:34.722Z,17.60
2018-05-11T19:13:01.540Z,17.60
2018-05-11T19:15:27.577Z,17.60
2018-05-11T19:17:53.673Z,17.60
2018-05-11T19:20:20.353Z,17.60
2018-05-11T19:22:46.560Z,17.60
2018-05-11T19:25:12.593Z,17.70
2018-05-11T19:27:38.691Z,17.70
2018-05-11T19:30:05.017Z,17.70
2018-05-11T19:32:31.783Z,17.60
2018-05-11T19:34:57.813Z,17.60
2018-05-11T19:37:24.657Z,17.60
2018-05-11T19:39:51.501Z,17.50
2018-05-11T19:42:18.401Z,17.50
2018-05-11T19:44:44.366Z,17.50
2018-05-11T19:47:10.400Z,17.50
2018-05-11T19:49:36.681Z,17.50
2018-05-11T19:52:03.486Z,17.30
2018-05-11T19:54:29.540Z,17.30
2018-05-11T19:56:55.566Z,17.30
2018-05-11T19:59:22.385Z,17.20
2018-05-11T20:01:49.181Z,17.20
2018-05-11T20:04:15.217Z,17.20
2018-05-11T20:06:41.281Z,17.10
2018-05-11T20:09:07.435Z,17.00
2018-05-11T20:11:34.278Z,16.90
2018-05-11T20:14:00.403Z,16.80
2018-05-11T20:16:26.584Z,16.90
2018-05-11T20:18:53.458Z,16.80
2018-05-11T20:21:19.532Z,16.70
2018-05-11T20:23:46.655Z,16.60
2018-05-11T20:26:12.700Z,16.60
2018-05-11T20:28:38.797Z,16.50
2018-05-11T20:31:05.660Z,16.50
2018-05-11T20:33:32.494Z,16.40
2018-05-11T20:35:58.549Z,16.40
2018-05-11T20:38:25.724Z,16.30
2018-05-11T20:40:52.611Z,16.20
2018-05-11T20:43:18.635Z,16.20
2018-05-11T20:45:44.761Z,16.20
2018-05-11T20:48:11.554Z,16.10
2018-05-11T20:50:37.655Z,16.10
2018-05-11T20:53:03.648Z,16.10
2018-05-11T20:55:29.773Z,16.00
2018-05-11T20:57:56.922Z,16.00
2018-05-11T21:00:23.170Z,15.90
2018-05-11T21:02:49.285Z,15.80
2018-05-11T21:05:15.305Z,15.80
2018-05-11T21:07:42.145Z,15.70
2018-05-11T21:10:08.371Z,15.70
2018-05-11T21:12:35.038Z,15.70
2018-05-11T21:15:01.308Z,15.60
2018-05-11T21:17:27.456Z,15.60
2018-05-11T21:19:54.588Z,15.60
2018-05-11T21:22:21.374Z,15.60
2018-05-11T21:24:47.422Z,15.60
2018-05-11T21:27:13.531Z,15.60
2018-05-11T21:29:40.358Z,15.60
2018-05-11T21:32:06.787Z,15.60
2018-05-11T21:34:32.820Z,15.60
2018-05-11T21:36:58.991Z,15.70
2018-05-11T21:39:25.049Z,15.70
2018-05-11T21:41:51.813Z,15.70
2018-05-11T21:44:18.615Z,15.70
2018-05-11T21:46:44.665Z,15.70
2018-05-11T21:49:10.733Z,15.70
2018-05-11T21:51:36.985Z,15.70
2018-05-11T21:54:03.777Z,15.70
2018-05-11T21:56:29.832Z,15.70
2018-05-11T21:58:55.903Z,15.70
2018-05-11T22:01:21.956Z,15.70
2018-05-11T22:03:48.773Z,15.70
2018-05-11T22:06:14.866Z,15.70
2018-05-11T22:08:40.928Z,15.70
2018-05-11T22:11:07.015Z,15.60
2018-05-11T22:13:33.121Z,15.80
2018-05-11T22:15:59.160Z,15.80
2018-05-11T22:18:26.171Z,15.60
2018-05-11T22:20:52.946Z,15.60
2018-05-11T22:23:18.987Z,15.60
2018-05-11T22:25:46.054Z,15.60
2018-05-11T22:28:12.072Z,15.60
2018-05-11T22:30:38.096Z,15.50
2018-05-11T22:33:04.179Z,15.50
2018-05-11T22:35:30.233Z,15.50
2018-05-11T22:37:56.317Z,15.50
2018-05-11T22:40:22.425Z,15.40
2018-05-11T22:42:48.500Z,15.40
2018-05-11T22:45:14.531Z,15.40
2018-05-11T22:47:40.600Z,15.40
2018-05-11T22:50:06.695Z,15.30
2018-05-11T22:52:33.509Z,15.30
2018-05-11T22:54:59.619Z,15.30
2018-05-11T22:57:25.649Z,15.30
2018-05-11T22:59:51.653Z,15.30
2018-05-11T23:02:18.460Z,15.10
2018-05-11T23:04:44.548Z,15.10
2018-05-11T23:07:11.375Z,15.10
2018-05-11T23:09:37.413Z,15.10
2018-05-11T23:12:03.476Z,15.10
2018-05-11T23:14:30.284Z,15.00
2018-05-11T23:16:56.376Z,15.00
2018-05-11T23:19:22.429Z,15.00
2018-05-11T23:21:48.472Z,15.00
2018-05-11T23:24:14.518Z,15.10
2018-05-11T23:26:40.602Z,15.10
2018-05-11T23:29:06.639Z,15.00
2018-05-11T23:31:32.667Z,14.90
2018-05-11T23:33:58.698Z,14.90
2018-05-11T23:36:24.991Z,14.90
2018-05-11T23:38:51.041Z,14.90
2018-05-11T23:41:17.090Z,14.90
2018-05-11T23:43:43.174Z,14.90
2018-05-11T23:46:09.249Z,14.90
2018-05-11T23:48:35.353Z,14.90
2018-05-11T23:51:01.425Z,14.90
2018-05-11T23:53:27.478Z,14.80
2018-05-11T23:55:53.512Z,14.80
2018-05-11T23:58:19.541Z,14.90
